createdAt,value
2022-12-26T00:00:31.413Z,98176.13
2022-12-26T00:02:58.206Z,98164.28
2022-12-26T00:05:24.793Z,98161.09
2022-12-26T00:07:51.545Z,98153.75
2022-12-26T00:10:18.287Z,98164.59
2022-12-26T00:12:44.983Z,98165.25
2022-12-26T00:15:11.719Z,98155.75
2022-12-26T00:17:38.152Z,98151.78
2022-12-26T00:20:05.220Z,98148.28
2022-12-26T00:22:31.731Z,98146.63
2022-12-26T00:24:58.182Z,98143.78
2022-12-26T00:27:24.535Z,98135.41
2022-12-26T00:29:50.998Z,98130.09
2022-12-26T00:32:17.550Z,98131.59
2022-12-26T00:34:44.040Z,98133.75
2022-12-26T00:37:10.534Z,98138.78
2022-12-26T00:39:36.956Z,98141.75
2022-12-26T00:42:04.079Z,98144.59
2022-12-26T00:44:30.440Z,98137.59
2022-12-26T00:46:57.780Z,98139.59
2022-12-26T00:49:24.364Z,98142.78
2022-12-26T00:51:50.842Z,98136.28
2022-12-26T00:54:18.115Z,98135.44
2022-12-26T00:56:44.565Z,98142.59
2022-12-26T00:59:11.282Z,98152.28
2022-12-26T01:01:37.978Z,98131.09
2022-12-26T01:04:04.826Z,98139.44
2022-12-26T01:06:31.542Z,98140.97
2022-12-26T01:08:59.470Z,98140.63
2022-12-26T01:11:41.101Z,98155.63
2022-12-26T01:14:14.768Z,98155.44
2022-12-26T01:16:43.264Z,98150.59
2022-12-26T01:19:11.937Z,98154.44
2022-12-26T01:21:38.754Z,98164.47
2022-12-26T01:24:06.475Z,98163.63
2022-12-26T01:26:32.936Z,98159.94
2022-12-26T01:28:59.347Z,98165.78
2022-12-26T01:31:25.779Z,98166.28
2022-12-26T01:33:52.274Z,98155.63
2022-12-26T01:36:18.951Z,98152.59
2022-12-26T01:38:45.680Z,98160.13
2022-12-26T01:41:20.028Z,98167.97
2022-12-26T01:43:59.047Z,98165.59
2022-12-26T01:46:37.402Z,98175.09
2022-12-26T01:49:19.893Z,98189.44
2022-12-26T01:51:53.387Z,98196.69
2022-12-26T01:54:40.773Z,98192.56
2022-12-26T01:57:13.317Z,98184.22
2022-12-26T01:59:41.366Z,98182.44
2022-12-26T02:02:08.998Z,98188.59
2022-12-26T02:04:59.928Z,98193.47
2022-12-26T02:07:26.818Z,98208.47
2022-12-26T02:09:53.766Z,98192.28
2022-12-26T02:12:33.961Z,98209.97
2022-12-26T02:15:10.419Z,98203.47
2022-12-26T02:17:37.813Z,98200.94
2022-12-26T02:20:17.349Z,98203.94
2022-12-26T02:23:05.240Z,98205.59
2022-12-26T02:25:50.232Z,98212.44
2022-12-26T02:28:58.223Z,98206.75
2022-12-26T02:32:06.401Z,98200.94
2022-12-26T02:34:38.977Z,98194.09
2022-12-26T02:37:52.678Z,98206.06
2022-12-26T02:40:32.673Z,98212.56
2022-12-26T02:43:21.000Z,98217.56
2022-12-26T02:46:22.676Z,98188.91
2022-12-26T02:48:52.173Z,98182.56
2022-12-26T02:52:03.206Z,98185.06
2022-12-26T02:55:04.498Z,98186.22
2022-12-26T02:58:00.304Z,98210.88
2022-12-26T03:00:46.671Z,98202.53
2022-12-26T03:03:45.248Z,98204.25
2022-12-26T03:06:38.639Z,98194.22
2022-12-26T03:09:29.676Z,98197.22
2022-12-26T03:12:26.111Z,98212.25
2022-12-26T03:14:57.014Z,98201.22
2022-12-26T03:17:49.803Z,98204.41
2022-12-26T03:20:42.952Z,98210.91
2022-12-26T03:23:16.096Z,98205.38
2022-12-26T03:26:09.929Z,98208.38
2022-12-26T03:28:36.553Z,98216.88
2022-12-26T03:31:08.531Z,98211.25
2022-12-26T03:33:56.516Z,98204.25
2022-12-26T03:36:40.784Z,98198.72
2022-12-26T03:39:54.106Z,98193.22
2022-12-26T03:42:47.782Z,98201.75
2022-12-26T03:45:45.951Z,98197.56
2022-12-26T03:48:50.198Z,98175.72
2022-12-26T03:51:54.053Z,98175.03
2022-12-26T03:55:06.122Z,98181.66
2022-12-26T03:57:57.591Z,98172.34
2022-12-26T04:00:44.193Z,98158.31
2022-12-26T04:03:32.411Z,98171.44
2022-12-26T04:06:21.904Z,98167.47
2022-12-26T04:12:40.681Z,98161.44
2022-12-26T04:15:37.830Z,98162.25
2022-12-26T04:18:35.903Z,98162.28
2022-12-26T04:21:08.842Z,98171.09
2022-12-26T04:24:01.508Z,98174.56
2022-12-26T04:26:50.895Z,98177.97
2022-12-26T04:29:36.155Z,98171.72
2022-12-26T04:32:47.318Z,98172.91
2022-12-26T04:36:01.517Z,98196.72
2022-12-26T04:38:52.837Z,98192.38
2022-12-26T04:41:39.300Z,98189.03
2022-12-26T04:44:08.757Z,98207.53
2022-12-26T04:46:39.212Z,98194.22
2022-12-26T04:49:30.396Z,98192.88
2022-12-26T04:51:58.061Z,98199.25
2022-12-26T04:54:24.841Z,98209.94
2022-12-26T04:56:51.421Z,98204.44
2022-12-26T04:59:18.297Z,98199.47
2022-12-26T05:02:03.228Z,98192.25
2022-12-26T05:04:48.268Z,98195.44
2022-12-26T05:07:43.962Z,98198.56
2022-12-26T05:10:20.830Z,98181.81
2022-12-26T05:12:47.680Z,98174.28
2022-12-26T05:15:14.952Z,98170.28
2022-12-26T05:18:00.043Z,98177.63
2022-12-26T05:20:49.807Z,98186.81
2022-12-26T05:23:36.907Z,98193.97
2022-12-26T05:26:23.315Z,98199.41
2022-12-26T05:28:57.749Z,98199.13
2022-12-26T05:31:26.226Z,98207.75
2022-12-26T05:34:07.767Z,98219.41
2022-12-26T05:36:56.722Z,98216.38
2022-12-26T05:39:23.181Z,98217.03
2022-12-26T05:41:49.738Z,98226.75
2022-12-26T05:44:16.173Z,98222.44
2022-12-26T05:46:43.021Z,98229.91
2022-12-26T05:49:10.117Z,98223.75
2022-12-26T05:51:36.607Z,98227.78
2022-12-26T05:54:03.394Z,98233.22
2022-12-26T05:56:30.339Z,98235.88
2022-12-26T05:59:00.116Z,98231.44
2022-12-26T06:01:28.662Z,98237.28
2022-12-26T06:03:57.706Z,98241.09
2022-12-26T06:06:25.396Z,98245.16
2022-12-26T06:08:53.822Z,98247.19
2022-12-26T06:11:20.896Z,98248.47
2022-12-26T06:13:47.356Z,98257.66
2022-12-26T06:16:16.663Z,98264.50
2022-12-26T06:18:43.499Z,98263.47
2022-12-26T06:21:14.346Z,98263.84
2022-12-26T06:23:41.306Z,98264.31
2022-12-26T06:26:10.204Z,98261.63
2022-12-26T06:28:37.577Z,98263.34
2022-12-26T06:31:10.505Z,98263.69
2022-12-26T06:33:37.946Z,98270.47
2022-12-26T06:36:07.239Z,98274.13
2022-12-26T06:38:34.863Z,98276.16
2022-12-26T06:41:03.971Z,98271.75
2022-12-26T06:43:30.425Z,98261.97
2022-12-26T06:46:01.066Z,98253.34
2022-12-26T06:48:28.452Z,98245.09
2022-12-26T06:50:54.837Z,98249.31
2022-12-26T06:53:22.423Z,98266.97
2022-12-26T06:55:49.350Z,98264.50
2022-12-26T06:58:16.801Z,98266.97
2022-12-26T07:00:43.910Z,98267.34
2022-12-26T07:03:11.331Z,98257.13
2022-12-26T07:05:38.841Z,98260.59
2022-12-26T07:08:05.655Z,98248.63
2022-12-26T07:10:36.721Z,98257.75
2022-12-26T07:13:03.304Z,98268.59
2022-12-26T07:15:31.553Z,98261.59
2022-12-26T07:17:58.050Z,98255.56
2022-12-26T07:20:24.470Z,98241.88
2022-12-26T07:22:50.869Z,98239.69
2022-12-26T07:25:17.538Z,98249.00
2022-12-26T07:27:44.021Z,98272.81
2022-12-26T07:30:10.820Z,98276.28
2022-12-26T07:32:37.207Z,98258.47
2022-12-26T07:35:03.857Z,98274.75
2022-12-26T07:37:30.227Z,98285.16
2022-12-26T07:39:59.072Z,98300.00
2022-12-26T07:42:26.038Z,98288.44
2022-12-26T07:44:52.463Z,98289.38
2022-12-26T07:47:18.917Z,98296.31
2022-12-26T07:49:45.306Z,98300.25
2022-12-26T07:52:11.799Z,98314.31
2022-12-26T07:54:38.227Z,98311.66
2022-12-26T07:57:38.061Z,98327.31
2022-12-26T07:59:53.579Z,98333.00
2022-12-26T08:02:20.468Z,98330.56
2022-12-26T08:04:47.227Z,98331.75
2022-12-26T08:07:13.609Z,98329.19
2022-12-26T08:09:42.801Z,98333.69
2022-12-26T08:12:09.391Z,98342.13
2022-12-26T08:14:37.676Z,98331.88
2022-12-26T08:17:04.194Z,98331.97
2022-12-26T08:19:30.694Z,98321.34
2022-12-26T08:21:57.157Z,98279.53
2022-12-26T08:24:23.938Z,98266.09
2022-12-26T08:26:50.457Z,98282.19
2022-12-26T08:29:16.917Z,98271.88
2022-12-26T08:31:43.324Z,98284.63
2022-12-26T08:34:09.902Z,98288.34
2022-12-26T08:36:36.488Z,98310.75
2022-12-26T08:39:03.021Z,98306.63
2022-12-26T08:41:29.372Z,98314.94
2022-12-26T08:46:42.205Z,98329.47
2022-12-26T08:49:08.628Z,98342.00
2022-12-26T08:51:35.199Z,98341.00
2022-12-26T08:54:01.937Z,98335.09
2022-12-26T08:56:28.992Z,98337.50
2022-12-26T08:58:55.431Z,98339.78
2022-12-26T09:01:25.891Z,98347.16
2022-12-26T09:03:54.178Z,98363.47
2022-12-26T09:06:21.267Z,98356.22
2022-12-26T09:08:48.077Z,98360.09
2022-12-26T09:11:17.639Z,98358.44
2022-12-26T09:13:45.662Z,98360.22
2022-12-26T09:16:14.919Z,98357.53
2022-12-26T09:18:42.047Z,98358.97
2022-12-26T09:21:10.288Z,98381.28
2022-12-26T09:23:37.202Z,98404.66
2022-12-26T09:26:06.375Z,98412.38
2022-12-26T09:28:33.446Z,98406.22
2022-12-26T09:31:01.839Z,98388.28
2022-12-26T09:33:29.576Z,98384.84
2022-12-26T09:36:01.576Z,98386.69
2022-12-26T09:38:30.455Z,98385.09
2022-12-26T09:41:30.696Z,98370.81
2022-12-26T09:44:16.270Z,98374.06
2022-12-26T09:46:48.710Z,98378.81
2022-12-26T09:49:15.054Z,98378.94
2022-12-26T09:51:44.738Z,98370.13
2022-12-26T09:54:33.131Z,98367.19
2022-12-26T09:57:04.610Z,98388.44
2022-12-26T09:59:43.356Z,98384.41
2022-12-26T10:02:17.971Z,98419.34
2022-12-26T10:04:44.708Z,98400.38
2022-12-26T10:07:32.263Z,98388.41
2022-12-26T10:10:09.246Z,98378.06
2022-12-26T10:13:03.555Z,98396.31
2022-12-26T10:15:45.777Z,98391.06
2022-12-26T10:18:25.731Z,98370.06
2022-12-26T10:21:04.406Z,98381.56
2022-12-26T10:23:36.777Z,98393.31
2022-12-26T10:26:25.087Z,98385.06
2022-12-26T10:29:13.745Z,98379.13
2022-12-26T10:31:48.976Z,98376.09
2022-12-26T10:34:27.576Z,98387.31
2022-12-26T10:37:18.306Z,98390.56
2022-12-26T10:40:16.659Z,98383.09
2022-12-26T10:42:46.391Z,98375.94
2022-12-26T10:45:18.417Z,98385.31
2022-12-26T10:47:50.749Z,98400.94
2022-12-26T10:50:28.018Z,98398.72
2022-12-26T10:52:55.679Z,98400.09
2022-12-26T10:55:31.794Z,98400.28
2022-12-26T10:58:06.709Z,98407.28
2022-12-26T11:00:34.562Z,98393.66
2022-12-26T11:03:11.473Z,98411.19
2022-12-26T11:08:46.232Z,98404.16
2022-12-26T11:11:45.855Z,98408.69
2022-12-26T11:14:33.706Z,98409.16
2022-12-26T11:17:04.954Z,98408.78
2022-12-26T11:19:35.101Z,98410.09
2022-12-26T11:22:28.921Z,98418.09
2022-12-26T11:25:20.817Z,98427.84
2022-12-26T11:27:56.592Z,98430.66
2022-12-26T11:30:23.166Z,98421.09
2022-12-26T11:33:14.858Z,98423.13
2022-12-26T11:35:51.504Z,98423.25
2022-12-26T11:38:45.766Z,98423.97
2022-12-26T11:41:31.627Z,98423.78
2022-12-26T11:44:22.219Z,98432.72
2022-12-26T11:47:07.299Z,98423.22
2022-12-26T11:49:37.712Z,98413.44
2022-12-26T11:52:42.092Z,98410.06
2022-12-26T11:55:33.519Z,98410.19
2022-12-26T11:58:09.509Z,98400.41
2022-12-26T12:00:41.926Z,98408.78
2022-12-26T12:03:14.692Z,98404.28
2022-12-26T12:06:00.439Z,98403.28
2022-12-26T12:09:02.205Z,98405.50
2022-12-26T12:11:50.713Z,98403.31
2022-12-26T12:14:50.874Z,98405.03
2022-12-26T12:17:26.391Z,98416.66
2022-12-26T12:20:31.916Z,98407.59
2022-12-26T12:23:16.812Z,98393.69
2022-12-26T12:25:46.102Z,98402.44
2022-12-26T12:28:21.670Z,98402.88
2022-12-26T12:30:57.040Z,98390.72
2022-12-26T12:33:36.029Z,98414.31
2022-12-26T12:36:08.305Z,98413.75
2022-12-26T12:38:56.391Z,98435.94
2022-12-26T12:41:37.941Z,98422.00
2022-12-26T12:44:48.518Z,98412.44
2022-12-26T12:47:37.830Z,98412.47
2022-12-26T12:50:22.796Z,98417.00
2022-12-26T12:53:10.534Z,98409.28
2022-12-26T12:55:40.057Z,98403.72
2022-12-26T12:58:23.250Z,98395.81
2022-12-26T13:00:59.286Z,98404.63
2022-12-26T13:04:08.816Z,98407.53
2022-12-26T13:06:41.825Z,98397.25
2022-12-26T13:09:18.782Z,98400.16
2022-12-26T13:11:51.720Z,98405.94
2022-12-26T13:14:23.717Z,98401.72
2022-12-26T13:17:02.530Z,98398.91
2022-12-26T13:19:41.503Z,98393.66
2022-12-26T13:22:16.947Z,98396.56
2022-12-26T13:24:46.661Z,98392.00
2022-12-26T13:27:22.292Z,98395.16
2022-12-26T13:29:49.395Z,98387.75
2022-12-26T13:32:29.479Z,98387.22
2022-12-26T13:34:58.435Z,98392.13
2022-12-26T13:37:40.151Z,98390.28
2022-12-26T13:40:12.720Z,98395.22
2022-12-26T13:43:10.516Z,98391.47
2022-12-26T13:45:43.256Z,98388.63
2022-12-26T13:48:15.793Z,98383.94
2022-12-26T13:50:56.075Z,98380.41
2022-12-26T13:53:26.107Z,98372.31
2022-12-26T13:56:23.238Z,98370.88
2022-12-26T13:59:08.082Z,98370.78
2022-12-26T14:01:43.068Z,98364.72
2022-12-26T14:04:41.012Z,98350.66
2022-12-26T14:07:19.729Z,98362.75
2022-12-26T14:09:58.587Z,98369.47
2022-12-26T14:12:50.040Z,98371.41
2022-12-26T14:15:38.557Z,98365.41
2022-12-26T14:18:42.278Z,98356.59
2022-12-26T14:21:33.818Z,98372.13
2022-12-26T14:24:09.493Z,98359.81
2022-12-26T14:26:54.234Z,98355.94
2022-12-26T14:29:40.149Z,98368.75
2022-12-26T14:32:32.469Z,98373.59
2022-12-26T14:35:28.557Z,98375.53
2022-12-26T14:38:22.954Z,98366.41
2022-12-26T14:41:05.032Z,98372.59
2022-12-26T14:43:31.555Z,98378.63
2022-12-26T14:45:58.978Z,98382.56
2022-12-26T14:48:28.465Z,98382.13
2022-12-26T14:51:16.098Z,98374.28
2022-12-26T14:53:44.978Z,98378.19
2022-12-26T14:56:18.069Z,98383.69
2022-12-26T14:58:45.242Z,98382.47
2022-12-26T15:01:20.679Z,98376.16
2022-12-26T15:04:08.825Z,98376.25
2022-12-26T15:06:47.443Z,98388.31
2022-12-26T15:09:32.973Z,98391.69
2022-12-26T15:12:20.819Z,98400.50
2022-12-26T15:15:26.789Z,98401.00
2022-12-26T15:18:09.476Z,98394.91
2022-12-26T15:21:00.333Z,98411.84
2022-12-26T15:23:57.957Z,98410.88
2022-12-26T15:26:56.831Z,98402.91
2022-12-26T15:29:35.399Z,98410.88
2022-12-26T15:32:46.225Z,98414.63
2022-12-26T15:35:41.822Z,98405.97
2022-12-26T15:38:39.956Z,98405.56
2022-12-26T15:41:14.407Z,98404.13
2022-12-26T15:43:54.913Z,98396.16
2022-12-26T15:46:27.610Z,98383.22
2022-12-26T15:49:32.860Z,98392.50
2022-12-26T15:52:13.831Z,98388.56
2022-12-26T15:54:58.976Z,98382.28
2022-12-26T15:57:50.914Z,98383.19
2022-12-26T16:00:22.502Z,98398.22
2022-12-26T16:03:18.233Z,98403.56
2022-12-26T16:05:56.273Z,98400.06
2022-12-26T16:08:48.726Z,98402.16
2022-12-26T16:11:20.886Z,98397.25
2022-12-26T16:14:04.438Z,98399.78
2022-12-26T16:16:35.810Z,98388.56
2022-12-26T16:19:30.558Z,98383.69
2022-12-26T16:22:21.517Z,98398.94
2022-12-26T16:24:51.406Z,98416.84
2022-12-26T16:27:20.533Z,98428.44
2022-12-26T16:29:50.073Z,98440.31
2022-12-26T16:32:20.348Z,98474.53
2022-12-26T16:34:48.123Z,98496.75
2022-12-26T16:37:28.398Z,98535.72
2022-12-26T16:40:06.475Z,98543.56
2022-12-26T16:42:33.140Z,98542.53
2022-12-26T16:45:00.668Z,98536.75
2022-12-26T16:47:30.180Z,98549.09
2022-12-26T16:49:57.958Z,98545.09
2022-12-26T16:53:11.520Z,98555.13
2022-12-26T16:55:40.147Z,98564.19
2022-12-26T16:58:18.256Z,98565.00
2022-12-26T17:01:00.998Z,98558.19
2022-12-26T17:03:40.969Z,98531.59
2022-12-26T17:06:30.541Z,98509.81
2022-12-26T17:08:59.653Z,98499.13
2022-12-26T17:11:33.289Z,98490.31
2022-12-26T17:14:01.256Z,98486.03
2022-12-26T17:16:30.795Z,98504.53
2022-12-26T17:19:17.083Z,98520.56
2022-12-26T17:22:15.172Z,98521.78
2022-12-26T17:24:42.548Z,98534.50
2022-12-26T17:27:16.546Z,98545.09
2022-12-26T17:30:01.037Z,98547.38
2022-12-26T17:32:32.920Z,98541.28
2022-12-26T17:35:23.444Z,98516.41
2022-12-26T17:37:55.310Z,98539.44
2022-12-26T17:40:37.375Z,98545.28
2022-12-26T17:43:20.588Z,98554.22
2022-12-26T17:45:47.339Z,98543.38
2022-12-26T17:48:13.896Z,98544.84
2022-12-26T17:50:46.576Z,98551.81
2022-12-26T17:53:12.967Z,98554.63
2022-12-26T17:55:40.007Z,98552.84
2022-12-26T17:58:13.064Z,98555.56
2022-12-26T18:00:40.924Z,98558.03
2022-12-26T18:03:07.453Z,98574.09
2022-12-26T18:05:34.441Z,98579.16
2022-12-26T18:08:01.443Z,98588.19
2022-12-26T18:10:31.470Z,98587.06
2022-12-26T18:12:58.979Z,98606.25
2022-12-26T18:15:27.874Z,98605.94
2022-12-26T18:17:54.543Z,98613.75
2022-12-26T18:20:28.265Z,98622.06
2022-12-26T18:22:55.858Z,98624.84
2022-12-26T18:25:29.881Z,98616.25
2022-12-26T18:27:56.407Z,98627.28
2022-12-26T18:30:25.333Z,98631.25
2022-12-26T18:32:54.812Z,98638.75
2022-12-26T18:35:21.652Z,98643.91
2022-12-26T18:37:52.144Z,98648.66
2022-12-26T18:40:29.444Z,98666.81
2022-12-26T18:42:56.527Z,98665.75
2022-12-26T18:45:23.731Z,98685.91
2022-12-26T18:47:50.518Z,98681.81
2022-12-26T18:50:18.255Z,98676.50
2022-12-26T18:52:48.621Z,98688.34
2022-12-26T18:55:18.208Z,98692.53
2022-12-26T18:57:45.100Z,98690.72
2022-12-26T19:00:14.583Z,98690.00
2022-12-26T19:02:41.746Z,98695.78
2022-12-26T19:05:19.381Z,98681.44
2022-12-26T19:07:48.463Z,98686.81
2022-12-26T19:10:17.933Z,98698.59
2022-12-26T19:12:44.881Z,98694.97
2022-12-26T19:15:12.464Z,98704.13
2022-12-26T19:17:45.091Z,98713.16
2022-12-26T19:20:21.574Z,98720.09
2022-12-26T19:22:49.723Z,98712.69
2022-12-26T19:25:17.824Z,98725.41
2022-12-26T19:27:45.313Z,98725.84
2022-12-26T19:30:14.981Z,98736.34
2022-12-26T19:32:43.203Z,98743.06
2022-12-26T19:35:12.925Z,98738.69
2022-12-26T19:37:40.069Z,98745.47
2022-12-26T19:40:07.680Z,98747.72
2022-12-26T19:42:39.978Z,98746.19
2022-12-26T19:45:09.490Z,98761.38
2022-12-26T19:47:36.169Z,98757.84
2022-12-26T19:50:04.724Z,98768.53
2022-12-26T19:52:31.370Z,98772.22
2022-12-26T19:54:57.947Z,98774.97
2022-12-26T19:57:24.443Z,98784.13
2022-12-26T19:59:53.085Z,98786.41
2022-12-26T20:02:19.795Z,98794.16
2022-12-26T20:04:46.685Z,98803.16
2022-12-26T20:07:16.859Z,98801.47
2022-12-26T20:09:46.141Z,98810.81
2022-12-26T20:12:12.575Z,98812.94
2022-12-26T20:14:41.465Z,98816.66
2022-12-26T20:17:12.307Z,98817.28
2022-12-26T20:19:39.317Z,98824.41
2022-12-26T20:22:06.498Z,98831.94
2022-12-26T20:24:33.637Z,98832.56
2022-12-26T20:27:00.065Z,98836.03
2022-12-26T20:29:26.619Z,98850.03
2022-12-26T20:31:55.285Z,98854.28
2022-12-26T20:34:24.201Z,98848.03
2022-12-26T20:36:53.625Z,98863.84
2022-12-26T20:39:22.256Z,98868.09
2022-12-26T20:41:48.894Z,98876.56
2022-12-26T20:44:16.938Z,98882.19
2022-12-26T20:46:44.427Z,98880.44
2022-12-26T20:49:11.444Z,98896.00
2022-12-26T20:51:40.612Z,98900.56
2022-12-26T20:54:08.925Z,98913.25
2022-12-26T20:56:36.942Z,98916.41
2022-12-26T20:59:05.059Z,98921.47
2022-12-26T21:01:35.188Z,98923.06
2022-12-26T21:04:02.282Z,98928.41
2022-12-26T21:06:39.239Z,98932.63
2022-12-26T21:09:06.576Z,98951.78
2022-12-26T21:11:38.175Z,98950.56
2022-12-26T21:14:08.391Z,98957.06
2022-12-26T21:16:58.580Z,98969.91
2022-12-26T21:19:29.260Z,98982.22
2022-12-26T21:21:56.637Z,98989.94
2022-12-26T21:24:26.570Z,98983.28
2022-12-26T21:26:55.864Z,99000.56
2022-12-26T21:29:30.563Z,99011.66
2022-12-26T21:31:57.751Z,99016.88
2022-12-26T21:34:29.340Z,99021.56
2022-12-26T21:37:15.774Z,99019.03
2022-12-26T21:39:51.725Z,99027.03
2022-12-26T21:42:18.537Z,99031.28
2022-12-26T21:44:45.032Z,99035.25
2022-12-26T21:47:12.345Z,99037.88
2022-12-26T21:49:38.738Z,99040.69
2022-12-26T21:52:10.936Z,99041.75
2022-12-26T21:54:56.154Z,99055.66
2022-12-26T21:57:27.787Z,99062.72
2022-12-26T21:59:57.305Z,99066.38
2022-12-26T22:02:54.365Z,99072.97
2022-12-26T22:05:29.351Z,99077.28
2022-12-26T22:11:05.536Z,99090.44
2022-12-26T22:13:49.201Z,99104.09
2022-12-26T22:16:18.434Z,99114.88
2022-12-26T22:18:47.092Z,99112.00
2022-12-26T22:21:23.677Z,99114.97
2022-12-26T22:23:51.511Z,99122.88
2022-12-26T22:26:22.800Z,99126.13
2022-12-26T22:28:51.683Z,99134.72
2022-12-26T22:31:20.208Z,99139.81
2022-12-26T22:33:56.366Z,99142.63
2022-12-26T22:36:22.899Z,99149.75
2022-12-26T22:38:51.819Z,99146.09
2022-12-26T22:41:18.405Z,99147.72
2022-12-26T22:43:48.145Z,99157.75
2022-12-26T22:46:15.090Z,99162.09
2022-12-26T22:48:42.010Z,99158.44
2022-12-26T22:51:09.756Z,99163.72
2022-12-26T22:53:36.146Z,99174.75
2022-12-26T22:56:06.859Z,99169.56
2022-12-26T22:58:36.546Z,99178.66
2022-12-26T23:01:08.107Z,99181.44
2022-12-26T23:03:34.647Z,99185.00
2022-12-26T23:06:04.532Z,99184.25
2022-12-26T23:08:31.250Z,99179.41
2022-12-26T23:10:58.664Z,99186.63
2022-12-26T23:13:30.892Z,99190.69
2022-12-26T23:16:13.334Z,99190.09
2022-12-26T23:19:08.512Z,99195.09
2022-12-26T23:21:39.144Z,99200.69
2022-12-26T23:24:16.254Z,99206.06
2022-12-26T23:26:45.545Z,99204.59
2022-12-26T23:29:35.554Z,99202.06
2022-12-26T23:32:02.555Z,99202.81
2022-12-26T23:34:32.152Z,99205.44
2022-12-26T23:37:08.980Z,99209.00
2022-12-26T23:39:41.305Z,99220.72
2022-12-26T23:42:07.963Z,99216.13
2022-12-26T23:44:40.529Z,99217.91
2022-12-26T23:47:11.375Z,99211.13
2022-12-26T23:49:40.831Z,99200.34
2022-12-26T23:52:07.277Z,99208.72
2022-12-26T23:54:39.340Z,99214.75
2022-12-26T23:57:05.803Z,99209.47
2022-12-26T23:59:32.227Z,99212.13
